createdAt,value
2023-01-10T00:00:03.668Z,85.14
2023-01-10T00:01:03.669Z,85.24
2023-01-10T00:02:03.668Z,85.14
2023-01-10T00:03:03.819Z,85.24
2023-01-10T00:04:03.598Z,85.14
2023-01-10T00:05:03.705Z,85.14
2023-01-10T00:06:03.593Z,85.03
2023-01-10T00:07:03.699Z,85.14
2023-01-10T00:08:03.564Z,85.14
2023-01-10T00:09:03.567Z,85.03
2023-01-10T00:10:03.537Z,84.99
2023-01-10T00:11:03.504Z,84.79
2023-01-10T00:12:03.525Z,84.72
2023-01-10T00:13:03.528Z,84.72
2023-01-10T00:14:03.532Z,84.83
2023-01-10T00:15:03.498Z,84.83
2023-01-10T00:16:25.667Z,84.62
2023-01-10T00:17:03.430Z,84.72
2023-01-10T00:18:03.456Z,84.62
2023-01-10T00:19:03.494Z,84.69
2023-01-10T00:20:03.389Z,84.48
2023-01-10T00:21:10.883Z,84.38
2023-01-10T00:22:03.361Z,84.31
2023-01-10T00:23:03.447Z,84.42
2023-01-10T00:24:11.947Z,84.62
2023-01-10T00:25:04.326Z,84.62
2023-01-10T00:26:03.312Z,84.62
2023-01-10T00:27:13.908Z,84.48
2023-01-10T00:28:04.272Z,84.38
2023-01-10T00:29:03.254Z,84.38
2023-01-10T00:30:03.302Z,84.27
2023-01-10T00:31:03.296Z,84.42
2023-01-10T00:32:03.232Z,84.62
2023-01-10T00:33:03.221Z,84.58
2023-01-10T00:34:03.274Z,84.48
2023-01-10T00:35:03.259Z,84.58
2023-01-10T00:36:03.185Z,84.52
2023-01-10T00:37:03.189Z,84.72
2023-01-10T00:38:03.170Z,84.69
2023-01-10T00:39:03.129Z,84.72
2023-01-10T00:40:03.268Z,84.83
2023-01-10T00:41:03.159Z,84.83
2023-01-10T00:42:03.171Z,84.72
2023-01-10T00:43:17.192Z,84.83
2023-01-10T00:44:03.079Z,85.03
2023-01-10T00:45:03.090Z,85.14
2023-01-10T00:46:03.206Z,85.24
2023-01-10T00:47:03.112Z,85.24
2023-01-10T00:48:03.039Z,85.24
2023-01-10T00:49:03.015Z,85.44
2023-01-10T00:50:03.072Z,85.34
2023-01-10T00:51:02.979Z,85.34
2023-01-10T00:52:03.016Z,85.55
2023-01-10T00:53:03.045Z,85.65
2023-01-10T00:54:02.983Z,85.65
2023-01-10T00:55:02.952Z,85.75
2023-01-10T00:56:02.942Z,85.86
2023-01-10T00:57:02.899Z,85.75
2023-01-10T00:58:02.916Z,85.75
2023-01-10T00:59:02.930Z,85.96
2023-01-10T01:00:02.858Z,86.16
2023-01-10T01:01:02.930Z,86.37
2023-01-10T01:02:02.947Z,86.41
2023-01-10T01:03:02.870Z,86.58
2023-01-10T01:04:02.831Z,86.47
2023-01-10T01:05:02.887Z,86.47
2023-01-10T01:06:02.779Z,86.58
2023-01-10T01:07:02.861Z,86.47
2023-01-10T01:08:02.764Z,86.37
2023-01-10T01:09:02.727Z,86.37
2023-01-10T01:10:02.757Z,86.37
2023-01-10T01:11:02.736Z,86.27
2023-01-10T01:12:02.724Z,86.16
2023-01-10T01:13:02.711Z,86.16
2023-01-10T01:14:02.691Z,86.16
2023-01-10T01:15:02.657Z,86.27
2023-01-10T01:16:02.799Z,86.37
2023-01-10T01:17:02.813Z,86.27
2023-01-10T01:18:02.603Z,86.47
2023-01-10T01:19:02.637Z,86.68
2023-01-10T01:20:02.599Z,86.68
2023-01-10T01:21:02.625Z,86.79
2023-01-10T01:22:02.638Z,86.88
2023-01-10T01:23:02.653Z,86.99
2023-01-10T01:24:02.556Z,86.99
2023-01-10T01:25:02.528Z,86.99
2023-01-10T01:26:02.532Z,87.09
2023-01-10T01:27:02.479Z,87.09
2023-01-10T01:28:02.507Z,87.30
2023-01-10T01:29:02.579Z,87.54
2023-01-10T01:30:02.496Z,87.51
2023-01-10T01:31:02.540Z,87.65
2023-01-10T01:32:02.460Z,87.85
2023-01-10T01:33:02.419Z,87.96
2023-01-10T01:34:02.436Z,88.37
2023-01-10T01:35:02.410Z,88.47
2023-01-10T01:36:02.393Z,88.57
2023-01-10T01:37:02.460Z,88.68
2023-01-10T01:38:02.374Z,88.89
2023-01-10T01:39:02.307Z,88.89
2023-01-10T01:40:02.367Z,88.68
2023-01-10T01:41:02.453Z,88.78
2023-01-10T01:42:02.331Z,88.78
2023-01-10T01:43:02.266Z,88.78
2023-01-10T01:44:02.326Z,88.78
2023-01-10T01:45:02.277Z,88.53
2023-01-10T01:46:02.372Z,88.57
2023-01-10T01:47:02.259Z,88.57
2023-01-10T01:48:02.292Z,88.57
2023-01-10T01:49:02.211Z,88.57
2023-01-10T01:50:02.226Z,88.57
2023-01-10T01:51:02.184Z,88.47
2023-01-10T01:52:02.184Z,88.47
2023-01-10T01:53:02.176Z,88.47
2023-01-10T01:54:02.171Z,88.37
2023-01-10T01:55:02.167Z,88.37
2023-01-10T01:56:02.182Z,88.26
2023-01-10T01:57:02.105Z,88.26
2023-01-10T01:58:02.094Z,88.17
2023-01-10T01:59:02.084Z,88.17
2023-01-10T02:00:02.110Z,88.06
2023-01-10T02:01:02.121Z,88.06
2023-01-10T02:02:02.241Z,87.96
2023-01-10T02:03:03.327Z,88.06
2023-01-10T02:04:02.086Z,88.06
2023-01-10T02:05:02.043Z,87.96
2023-01-10T02:06:02.021Z,88.17
2023-01-10T02:07:01.955Z,88.06
2023-01-10T02:08:02.065Z,88.06
2023-01-10T02:09:01.945Z,88.06
2023-01-10T02:10:01.916Z,87.96
2023-01-10T02:11:01.906Z,87.96
2023-01-10T02:12:01.909Z,87.85
2023-01-10T02:13:01.896Z,87.96
2023-01-10T02:14:02.137Z,87.81
2023-01-10T02:15:01.872Z,87.71
2023-01-10T02:16:01.891Z,87.65
2023-01-10T02:17:02.500Z,87.65
2023-01-10T02:18:01.811Z,87.65
2023-01-10T02:19:01.830Z,87.85
2023-01-10T02:20:03.273Z,87.96
2023-01-10T02:21:01.882Z,88.26
2023-01-10T02:22:01.763Z,88.17
2023-01-10T02:23:01.872Z,87.96
2023-01-10T02:24:01.903Z,88.06
2023-01-10T02:25:01.725Z,87.96
2023-01-10T02:26:01.696Z,87.85
2023-01-10T02:27:06.462Z,87.96
2023-01-10T02:28:01.679Z,88.06
2023-01-10T02:29:01.684Z,88.06
2023-01-10T02:30:01.828Z,88.06
2023-01-10T02:31:01.674Z,88.06
2023-01-10T02:32:01.623Z,88.17
2023-01-10T02:33:05.329Z,88.17
2023-01-10T02:34:01.644Z,88.17
2023-01-10T02:35:01.630Z,88.17
2023-01-10T02:36:01.591Z,88.26
2023-01-10T02:37:01.580Z,88.26
2023-01-10T02:38:01.564Z,88.17
2023-01-10T02:39:01.618Z,88.26
2023-01-10T02:40:01.723Z,88.26
2023-01-10T02:41:01.577Z,88.37
2023-01-10T02:42:01.501Z,88.26
2023-01-10T02:43:01.579Z,88.26
2023-01-10T02:44:01.470Z,88.47
2023-01-10T02:45:01.481Z,88.68
2023-01-10T02:46:01.569Z,88.82
2023-01-10T02:47:01.449Z,88.99
2023-01-10T02:48:01.411Z,89.03
2023-01-10T02:49:01.428Z,89.23
2023-01-10T02:50:01.397Z,89.54
2023-01-10T02:51:01.596Z,89.54
2023-01-10T02:52:01.357Z,89.75
2023-01-10T02:53:01.352Z,89.85
2023-01-10T02:54:03.366Z,89.95
2023-01-10T02:55:01.335Z,90.06
2023-01-10T02:56:01.333Z,90.06
2023-01-10T02:57:01.296Z,90.26
2023-01-10T02:59:12.409Z,90.78
2023-01-10T03:00:12.403Z,90.67
2023-01-10T03:01:12.445Z,90.67
2023-01-10T03:02:21.854Z,90.67
2023-01-10T03:03:13.463Z,90.78
2023-01-10T03:04:12.344Z,90.88
2023-01-10T03:05:21.585Z,90.88
2023-01-10T03:06:12.325Z,90.92
2023-01-10T03:07:12.363Z,91.03
2023-01-10T03:08:12.371Z,90.92
2023-01-10T03:09:12.304Z,90.92
2023-01-10T03:10:12.273Z,91.03
2023-01-10T03:11:12.287Z,90.88
2023-01-10T03:12:12.232Z,90.92
2023-01-10T03:13:12.223Z,91.03
2023-01-10T03:14:12.221Z,90.92
2023-01-10T03:15:12.307Z,90.92
2023-01-10T03:16:12.289Z,91.03
2023-01-10T03:17:12.479Z,91.13
2023-01-10T03:18:12.168Z,90.99
2023-01-10T03:19:12.155Z,90.88
2023-01-10T03:20:12.223Z,90.82
2023-01-10T03:21:12.179Z,90.72
2023-01-10T03:22:12.092Z,90.72
2023-01-10T03:23:12.217Z,90.72
2023-01-10T03:24:12.083Z,90.67
2023-01-10T03:25:12.071Z,90.51
2023-01-10T03:26:12.060Z,90.41
2023-01-10T03:27:12.336Z,90.26
2023-01-10T03:28:12.056Z,90.00
2023-01-10T03:29:12.025Z,90.06
2023-01-10T03:30:12.011Z,89.85
2023-01-10T03:31:12.077Z,89.54
2023-01-10T03:32:12.018Z,89.44
2023-01-10T03:33:11.992Z,89.34
2023-01-10T03:34:12.023Z,88.92
2023-01-10T03:35:11.973Z,88.82
2023-01-10T03:36:11.952Z,88.62
2023-01-10T03:37:11.997Z,88.31
2023-01-10T03:38:11.900Z,88.20
2023-01-10T03:39:11.903Z,87.99
2023-01-10T03:40:12.080Z,87.90
2023-01-10T03:41:11.858Z,87.90
2023-01-10T03:42:11.866Z,87.69
2023-01-10T03:43:11.855Z,87.59
2023-01-10T03:44:11.907Z,87.59
2023-01-10T03:45:11.813Z,87.59
2023-01-10T03:46:11.895Z,87.27
2023-01-10T03:47:11.780Z,87.38
2023-01-10T03:48:11.896Z,87.38
2023-01-10T03:49:11.750Z,87.38
2023-01-10T03:50:11.807Z,87.27
2023-01-10T03:51:36.902Z,87.17
2023-01-10T03:52:12.710Z,87.27
2023-01-10T03:53:11.679Z,87.17
2023-01-10T03:54:11.849Z,87.17
2023-01-10T03:55:11.714Z,87.07
2023-01-10T03:56:11.694Z,86.97
2023-01-10T03:57:11.671Z,86.76
2023-01-10T03:58:11.616Z,86.66
2023-01-10T03:59:11.622Z,86.66
2023-01-10T04:00:11.646Z,86.66
2023-01-10T04:01:11.699Z,86.76
2023-01-10T04:02:11.626Z,86.87
2023-01-10T04:03:11.586Z,86.87
2023-01-10T04:04:13.965Z,86.76
2023-01-10T04:05:11.566Z,86.66
2023-01-10T04:06:11.558Z,86.66
2023-01-10T04:07:40.256Z,86.66
2023-01-10T04:08:11.546Z,86.80
2023-01-10T04:09:11.497Z,87.01
2023-01-10T04:10:11.725Z,87.01
2023-01-10T04:11:11.510Z,86.90
2023-01-10T04:12:11.449Z,86.90
2023-01-10T04:13:11.651Z,86.90
2023-01-10T04:14:11.430Z,86.80
2023-01-10T04:15:11.396Z,86.80
2023-01-10T04:16:11.485Z,86.80
2023-01-10T04:17:11.727Z,86.90
2023-01-10T04:18:11.363Z,86.90
2023-01-10T04:19:11.473Z,87.01
2023-01-10T04:20:11.345Z,86.90
2023-01-10T04:21:11.361Z,87.01
2023-01-10T04:22:11.333Z,87.11
2023-01-10T04:23:11.288Z,87.01
2023-01-10T04:24:11.376Z,87.05
2023-01-10T04:25:11.276Z,87.11
2023-01-10T04:26:11.275Z,87.05
2023-01-10T04:27:11.307Z,87.15
2023-01-10T04:28:11.317Z,87.15
2023-01-10T04:29:11.233Z,87.15
2023-01-10T04:30:11.284Z,87.26
2023-01-10T04:31:11.196Z,87.26
2023-01-10T04:32:11.176Z,87.15
2023-01-10T04:33:39.980Z,87.15
2023-01-10T04:34:11.145Z,87.35
2023-01-10T04:35:11.155Z,87.26
2023-01-10T04:36:11.147Z,87.26
2023-01-10T04:37:11.252Z,87.35
2023-01-10T04:38:11.116Z,87.46
2023-01-10T04:39:11.145Z,87.56
2023-01-10T04:40:11.159Z,87.66
2023-01-10T04:41:11.108Z,87.66
2023-01-10T04:42:11.055Z,87.66
2023-01-10T04:43:11.035Z,87.77
2023-01-10T04:44:11.039Z,87.77
2023-01-10T04:45:11.083Z,87.87
2023-01-10T04:46:11.079Z,87.77
2023-01-10T04:47:11.038Z,87.87
2023-01-10T04:48:10.956Z,87.87
2023-01-10T04:49:10.956Z,87.98
2023-01-10T04:50:11.064Z,88.08
2023-01-10T04:51:10.934Z,88.08
2023-01-10T04:52:10.922Z,87.93
2023-01-10T04:53:10.949Z,88.04
2023-01-10T04:54:10.901Z,87.98
2023-01-10T04:55:10.884Z,87.98
2023-01-10T04:56:10.858Z,88.04
2023-01-10T04:57:10.947Z,87.93
2023-01-10T04:58:10.842Z,87.83
2023-01-10T04:59:10.865Z,87.83
2023-01-10T05:00:10.929Z,87.73
2023-01-10T05:01:10.852Z,87.83
2023-01-10T05:02:10.850Z,87.63
2023-01-10T05:03:13.425Z,87.73
2023-01-10T05:04:10.773Z,87.52
2023-01-10T05:05:10.730Z,87.52
2023-01-10T05:06:11.014Z,87.42
2023-01-10T05:07:10.703Z,87.42
2023-01-10T05:08:10.682Z,87.42
2023-01-10T05:09:10.848Z,87.42
2023-01-10T05:10:10.739Z,87.42
2023-01-10T05:11:10.682Z,87.32
2023-01-10T05:12:10.869Z,87.42
2023-01-10T05:13:11.619Z,87.56
2023-01-10T05:14:10.604Z,87.46
2023-01-10T05:15:10.843Z,87.56
2023-01-10T05:16:10.686Z,87.56
2023-01-10T05:17:10.615Z,87.56
2023-01-10T05:18:10.791Z,87.56
2023-01-10T05:19:10.567Z,87.66
2023-01-10T05:20:10.576Z,87.56
2023-01-10T05:21:17.476Z,87.66
2023-01-10T05:22:11.532Z,87.66
2023-01-10T05:23:10.557Z,87.56
2023-01-10T05:24:10.468Z,87.56
2023-01-10T05:25:10.742Z,87.56
2023-01-10T05:26:10.541Z,87.46
2023-01-10T05:27:10.449Z,87.46
2023-01-10T05:28:17.156Z,87.46
2023-01-10T05:29:10.419Z,87.46
2023-01-10T05:30:10.383Z,87.46
2023-01-10T05:31:10.421Z,87.35
2023-01-10T05:32:10.541Z,87.35
2023-01-10T05:33:10.359Z,87.42
2023-01-10T05:34:10.366Z,87.21
2023-01-10T05:35:10.338Z,87.26
2023-01-10T05:36:10.320Z,87.32
2023-01-10T05:37:10.327Z,87.21
2023-01-10T05:38:10.350Z,87.21
2023-01-10T05:39:10.332Z,87.21
2023-01-10T05:40:10.312Z,87.26
2023-01-10T05:41:10.254Z,87.11
2023-01-10T05:42:10.257Z,87.11
2023-01-10T05:43:10.251Z,87.11
2023-01-10T05:44:14.774Z,87.11
2023-01-10T05:45:10.216Z,87.01
2023-01-10T05:46:10.335Z,87.01
2023-01-10T05:47:10.175Z,87.01
2023-01-10T05:48:10.230Z,86.90
2023-01-10T05:49:10.140Z,86.90
2023-01-10T05:50:10.122Z,86.70
2023-01-10T05:51:10.178Z,86.70
2023-01-10T05:52:10.166Z,86.70
2023-01-10T05:53:10.117Z,86.49
2023-01-10T05:54:10.133Z,86.49
2023-01-10T05:55:10.181Z,86.39
2023-01-10T05:56:10.047Z,86.08
2023-01-10T05:57:10.107Z,85.97
2023-01-10T05:58:10.108Z,85.77
2023-01-10T05:59:26.961Z,85.67
2023-01-10T06:00:11.034Z,85.52
2023-01-10T06:01:10.082Z,85.31
2023-01-10T06:02:10.083Z,85.22
2023-01-10T06:03:10.075Z,85.11
2023-01-10T06:04:10.052Z,84.80
2023-01-10T06:05:09.955Z,84.70
2023-01-10T06:06:10.007Z,84.70
2023-01-10T06:07:09.909Z,84.39
2023-01-10T06:08:09.887Z,84.19
2023-01-10T06:09:21.109Z,84.19
2023-01-10T06:10:09.894Z,84.19
2023-01-10T06:11:09.891Z,84.08
2023-01-10T06:12:09.901Z,84.08
2023-01-10T06:13:09.899Z,83.77
2023-01-10T06:14:09.841Z,83.87
2023-01-10T06:15:10.139Z,83.73
2023-01-10T06:16:09.893Z,83.56
2023-01-10T06:17:09.777Z,83.47
2023-01-10T06:18:12.095Z,83.56
2023-01-10T06:19:09.757Z,83.42
2023-01-10T06:20:09.754Z,83.32
2023-01-10T06:21:21.400Z,83.47
2023-01-10T06:22:09.776Z,83.36
2023-01-10T06:23:09.717Z,83.47
2023-01-10T06:24:09.841Z,83.32
2023-01-10T06:25:09.683Z,83.22
2023-01-10T06:26:09.677Z,82.95
2023-01-10T06:27:09.922Z,82.84
2023-01-10T06:28:09.655Z,82.64
2023-01-10T06:29:09.630Z,82.54
2023-01-10T06:30:09.790Z,82.50
2023-01-10T06:31:09.671Z,82.29
2023-01-10T06:32:09.584Z,82.29
2023-01-10T06:33:09.828Z,82.29
2023-01-10T06:34:09.565Z,82.40
2023-01-10T06:35:09.585Z,82.29
2023-01-10T06:36:10.837Z,82.19
2023-01-10T06:37:09.519Z,82.29
2023-01-10T06:38:09.498Z,82.29
2023-01-10T06:39:09.528Z,82.29
2023-01-10T06:40:09.595Z,82.29
2023-01-10T06:41:09.502Z,82.29
2023-01-10T06:42:09.456Z,82.29
2023-01-10T06:43:09.506Z,82.29
2023-01-10T06:44:09.422Z,82.29
2023-01-10T06:45:09.463Z,82.19
2023-01-10T06:46:09.836Z,82.19
2023-01-10T06:47:09.415Z,82.09
2023-01-10T06:48:09.510Z,82.09
2023-01-10T06:49:09.452Z,82.19
2023-01-10T06:50:09.519Z,81.98
2023-01-10T06:51:09.394Z,81.71
2023-01-10T06:52:09.335Z,81.67
2023-01-10T06:53:09.367Z,81.57
2023-01-10T06:54:09.335Z,81.37
2023-01-10T06:55:09.276Z,81.16
2023-01-10T06:56:18.539Z,80.89
2023-01-10T06:57:09.242Z,80.79
2023-01-10T06:58:09.275Z,80.79
2023-01-10T06:59:09.308Z,80.75
2023-01-10T07:00:09.364Z,80.65
2023-01-10T07:01:09.298Z,80.58
2023-01-10T07:02:09.288Z,80.44
2023-01-10T07:03:09.275Z,80.02
2023-01-10T07:04:09.303Z,79.72
2023-01-10T07:05:11.402Z,79.72
2023-01-10T07:06:09.135Z,79.72
2023-01-10T07:07:09.192Z,79.61
2023-01-10T07:08:09.133Z,79.41
2023-01-10T07:09:09.131Z,79.41
2023-01-10T07:10:09.240Z,79.41
2023-01-10T07:11:09.134Z,79.51
2023-01-10T07:12:09.060Z,79.30
2023-01-10T07:13:10.335Z,79.30
2023-01-10T07:14:09.132Z,79.30
2023-01-10T07:15:09.084Z,79.20
2023-01-10T07:16:09.221Z,79.30
2023-01-10T07:17:08.990Z,79.41
2023-01-10T07:18:10.753Z,79.41
2023-01-10T07:19:09.015Z,79.72
2023-01-10T07:20:08.959Z,79.72
2023-01-10T07:21:08.929Z,79.72
2023-01-10T07:22:08.923Z,79.93
2023-01-10T07:23:08.926Z,80.02
2023-01-10T07:24:08.899Z,80.13
2023-01-10T07:25:08.889Z,80.23
2023-01-10T07:26:08.878Z,80.33
2023-01-10T07:27:08.937Z,80.33
2023-01-10T07:28:08.862Z,80.44
2023-01-10T07:29:08.833Z,80.54
2023-01-10T07:30:08.965Z,80.65
2023-01-10T07:31:08.851Z,80.75
2023-01-10T07:32:08.809Z,80.65
2023-01-10T07:33:08.977Z,80.75
2023-01-10T07:34:08.879Z,80.65
2023-01-10T07:35:08.804Z,80.75
2023-01-10T07:36:08.947Z,80.75
2023-01-10T07:37:10.473Z,80.85
2023-01-10T07:38:08.753Z,80.89
2023-01-10T07:39:08.756Z,80.95
2023-01-10T07:40:08.689Z,80.95
2023-01-10T07:41:08.668Z,81.05
2023-01-10T07:42:08.680Z,81.05
2023-01-10T07:43:08.647Z,81.16
2023-01-10T07:44:14.128Z,81.26
2023-01-10T07:45:08.651Z,81.16
2023-01-10T07:46:08.699Z,81.16
2023-01-10T07:47:08.744Z,81.16
2023-01-10T07:48:08.660Z,81.05
2023-01-10T07:49:08.592Z,81.16
2023-01-10T07:50:08.803Z,81.16
2023-01-10T07:51:08.515Z,81.16
2023-01-10T07:52:08.533Z,81.16
2023-01-10T07:53:08.759Z,81.05
2023-01-10T07:54:08.515Z,81.16
2023-01-10T07:55:08.458Z,80.95
2023-01-10T07:57:19.429Z,81.05
2023-01-10T07:58:19.415Z,80.85
2023-01-10T07:59:19.392Z,80.85
2023-01-10T08:00:19.393Z,80.75
2023-01-10T08:01:19.582Z,80.54
2023-01-10T08:02:19.478Z,80.54
2023-01-10T08:03:19.449Z,80.33
2023-01-10T08:04:19.357Z,80.13
2023-01-10T08:05:19.287Z,80.09
2023-01-10T08:06:19.274Z,79.99
2023-01-10T08:07:19.382Z,80.02
2023-01-10T08:08:19.314Z,80.13
2023-01-10T08:09:19.489Z,80.02
2023-01-10T08:10:19.412Z,80.13
2023-01-10T08:11:19.290Z,80.09
2023-01-10T08:12:19.250Z,79.99
2023-01-10T08:13:19.543Z,79.88
2023-01-10T08:14:19.900Z,79.79
2023-01-10T08:15:19.165Z,79.79
2023-01-10T08:16:19.228Z,79.88
2023-01-10T08:17:19.426Z,79.68
2023-01-10T08:18:41.736Z,79.68
2023-01-10T08:19:19.107Z,79.88
2023-01-10T08:20:19.108Z,79.79
2023-01-10T08:21:19.114Z,79.88
2023-01-10T08:22:19.204Z,79.99
2023-01-10T08:23:19.055Z,80.09
2023-01-10T08:24:19.295Z,80.09
2023-01-10T08:25:19.043Z,80.30
2023-01-10T08:26:19.009Z,80.30
2023-01-10T08:27:19.188Z,80.51
2023-01-10T08:28:19.039Z,80.71
2023-01-10T08:29:19.048Z,80.81
2023-01-10T08:30:18.989Z,80.81
2023-01-10T08:31:19.133Z,80.91
2023-01-10T08:32:19.060Z,81.02
2023-01-10T08:33:18.985Z,81.23
2023-01-10T08:34:29.525Z,81.23
2023-01-10T08:35:18.907Z,81.33
2023-01-10T08:36:18.965Z,81.47
2023-01-10T08:37:18.933Z,81.43
2023-01-10T08:38:19.055Z,81.43
2023-01-10T08:39:18.881Z,81.53
2023-01-10T08:40:19.063Z,81.43
2023-01-10T08:41:19.051Z,81.43
2023-01-10T08:42:18.811Z,81.33
2023-01-10T08:43:18.804Z,81.33
2023-01-10T08:44:18.876Z,81.12
2023-01-10T08:46:28.655Z,81.23
2023-01-10T08:47:28.634Z,81.02
2023-01-10T08:48:28.742Z,80.61
2023-01-10T08:49:28.561Z,80.51
2023-01-10T08:50:28.625Z,80.30
2023-01-10T08:51:28.602Z,80.30
2023-01-10T08:52:28.625Z,80.40
2023-01-10T08:53:28.523Z,80.09
2023-01-10T08:54:28.563Z,80.09
2023-01-10T08:55:28.626Z,80.19
2023-01-10T08:56:28.491Z,80.44
2023-01-10T08:57:28.723Z,80.65
2023-01-10T08:58:34.006Z,80.75
2023-01-10T08:59:29.468Z,80.81
2023-01-10T09:00:28.413Z,80.44
2023-01-10T09:01:28.605Z,80.44
2023-01-10T09:02:28.687Z,80.61
2023-01-10T09:03:28.428Z,80.51
2023-01-10T09:04:28.423Z,80.51
2023-01-10T09:05:28.718Z,80.51
2023-01-10T09:06:28.415Z,80.30
2023-01-10T09:07:28.422Z,79.99
2023-01-10T09:08:28.331Z,79.79
2023-01-10T09:10:06.851Z,79.37
2023-01-10T09:10:29.314Z,79.47
2023-01-10T09:11:29.406Z,79.37
2023-01-10T09:12:28.254Z,79.23
2023-01-10T09:13:28.337Z,79.03
2023-01-10T09:14:28.347Z,78.61
2023-01-10T09:15:28.273Z,78.30
2023-01-10T09:16:28.215Z,78.30
2023-01-10T09:17:28.290Z,78.00
2023-01-10T09:18:28.208Z,77.79
2023-01-10T09:19:28.266Z,77.58
2023-01-10T09:20:28.239Z,77.58
2023-01-10T09:21:28.235Z,77.48
2023-01-10T09:22:28.158Z,77.38
2023-01-10T09:23:28.160Z,77.28
2023-01-10T09:24:28.184Z,77.38
2023-01-10T09:25:28.103Z,77.28
2023-01-10T09:26:28.171Z,77.07
2023-01-10T09:27:28.130Z,76.97
2023-01-10T09:28:28.083Z,77.07
2023-01-10T09:29:28.031Z,77.28
2023-01-10T09:30:28.072Z,77.79
2023-01-10T09:31:28.025Z,78.20
2023-01-10T09:32:27.977Z,78.61
2023-01-10T09:33:34.999Z,79.03
2023-01-10T09:34:28.984Z,79.23
2023-01-10T09:35:28.117Z,79.30
2023-01-10T09:36:28.031Z,78.89
2023-01-10T09:37:27.971Z,78.99
2023-01-10T09:38:28.056Z,78.99
2023-01-10T09:39:38.225Z,79.33
2023-01-10T09:40:28.900Z,79.54
2023-01-10T09:41:27.864Z,79.64
2023-01-10T09:42:27.915Z,79.44
2023-01-10T09:43:27.940Z,79.54
2023-01-10T09:44:27.850Z,79.61
2023-01-10T09:45:27.864Z,79.54
2023-01-10T09:46:27.873Z,79.54
2023-01-10T09:47:27.824Z,79.64
2023-01-10T09:48:27.805Z,79.95
2023-01-10T09:49:27.858Z,79.85
2023-01-10T09:50:27.780Z,80.05
2023-01-10T09:51:27.835Z,80.16
2023-01-10T09:52:27.763Z,80.16
2023-01-10T09:53:27.909Z,80.36
2023-01-10T09:54:27.712Z,80.22
2023-01-10T09:55:27.685Z,80.12
2023-01-10T09:56:27.709Z,79.75
2023-01-10T09:57:27.760Z,79.85
2023-01-10T09:58:27.698Z,79.91
2023-01-10T09:59:27.639Z,80.05
2023-01-10T10:00:27.666Z,80.12
2023-01-10T10:01:27.642Z,80.02
2023-01-10T10:02:27.591Z,80.12
2023-01-10T10:03:33.646Z,79.91
2023-01-10T10:04:27.745Z,80.02
2023-01-10T10:05:27.577Z,80.02
2023-01-10T10:06:27.567Z,80.02
2023-01-10T10:07:27.545Z,79.81
2023-01-10T10:08:27.551Z,79.81
2023-01-10T10:09:27.543Z,79.81
2023-01-10T10:10:27.559Z,79.67
2023-01-10T10:11:27.478Z,79.50
2023-01-10T10:12:27.755Z,79.61
2023-01-10T10:13:27.959Z,79.57
2023-01-10T10:14:27.444Z,79.57
2023-01-10T10:15:27.480Z,79.57
2023-01-10T10:16:27.568Z,79.67
2023-01-10T10:17:27.387Z,79.16
2023-01-10T10:18:27.385Z,79.05
2023-01-10T10:19:27.368Z,78.96
2023-01-10T10:20:27.375Z,78.96
2023-01-10T10:21:27.393Z,78.96
2023-01-10T10:22:27.317Z,78.64
2023-01-10T10:23:27.431Z,78.75
2023-01-10T10:24:27.281Z,78.85
2023-01-10T10:25:27.356Z,78.96
2023-01-10T10:26:42.818Z,78.85
2023-01-10T10:27:28.286Z,78.96
2023-01-10T10:28:27.235Z,78.96
2023-01-10T10:29:27.397Z,78.75
2023-01-10T10:30:27.198Z,79.05
2023-01-10T10:31:27.290Z,79.05
2023-01-10T10:32:27.435Z,79.16
2023-01-10T10:33:27.208Z,79.36
2023-01-10T10:34:27.172Z,79.47
2023-01-10T10:35:27.181Z,79.47
2023-01-10T10:36:27.205Z,79.50
2023-01-10T10:37:27.346Z,79.61
2023-01-10T10:38:27.176Z,79.61
2023-01-10T10:39:27.185Z,79.81
2023-01-10T10:40:27.268Z,79.91
2023-01-10T10:41:27.074Z,79.81
2023-01-10T10:42:27.045Z,79.50
2023-01-10T10:43:27.082Z,78.89
2023-01-10T10:44:27.120Z,78.58
2023-01-10T10:45:27.194Z,78.47
2023-01-10T10:46:27.105Z,78.58
2023-01-10T10:47:27.023Z,78.68
2023-01-10T10:48:26.996Z,78.64
2023-01-10T10:49:27.039Z,78.54
2023-01-10T10:50:45.399Z,78.54
2023-01-10T10:51:27.962Z,78.54
2023-01-10T10:52:26.992Z,78.54
2023-01-10T10:53:26.955Z,78.23
2023-01-10T10:54:27.049Z,78.54
2023-01-10T10:55:26.882Z,78.64
2023-01-10T10:56:26.883Z,78.64
2023-01-10T10:57:27.099Z,78.64
2023-01-10T10:58:26.837Z,78.54
2023-01-10T10:59:26.886Z,78.44
2023-01-10T11:00:26.957Z,78.03
2023-01-10T11:01:27.182Z,77.92
2023-01-10T11:02:26.836Z,77.72
2023-01-10T11:03:26.995Z,77.48
2023-01-10T11:04:26.849Z,77.17
2023-01-10T11:05:26.743Z,77.17
2023-01-10T11:06:27.435Z,77.17
2023-01-10T11:07:26.737Z,77.06
2023-01-10T11:08:26.743Z,76.97
2023-01-10T11:09:26.904Z,77.00
2023-01-10T11:10:26.688Z,76.86
2023-01-10T11:11:26.657Z,76.45
2023-01-10T11:12:28.420Z,75.93
2023-01-10T11:13:26.631Z,75.67
2023-01-10T11:14:26.692Z,75.67
2023-01-10T11:15:26.730Z,75.76
2023-01-10T11:16:26.690Z,75.56
2023-01-10T11:17:26.652Z,75.35
2023-01-10T11:18:26.659Z,75.25
2023-01-10T11:19:26.636Z,75.35
2023-01-10T11:20:26.631Z,75.12
2023-01-10T11:21:26.631Z,75.04
2023-01-10T11:22:26.781Z,74.91
2023-01-10T11:23:26.544Z,74.91
2023-01-10T11:24:26.574Z,74.70
2023-01-10T11:25:26.567Z,74.91
2023-01-10T11:26:26.595Z,74.80
2023-01-10T11:27:26.461Z,74.84
2023-01-10T11:28:26.663Z,74.91
2023-01-10T11:29:26.535Z,74.80
2023-01-10T11:30:26.446Z,74.80
2023-01-10T11:31:32.493Z,74.60
2023-01-10T11:32:26.394Z,74.70
2023-01-10T11:33:26.426Z,74.36
2023-01-10T11:34:26.428Z,74.36
2023-01-10T11:35:26.443Z,74.46
2023-01-10T11:36:26.353Z,74.26
2023-01-10T11:37:26.424Z,74.02
2023-01-10T11:38:26.312Z,73.54
2023-01-10T11:39:26.660Z,73.13
2023-01-10T11:40:26.305Z,72.89
2023-01-10T11:41:26.315Z,72.89
2023-01-10T11:42:26.433Z,72.82
2023-01-10T11:43:26.254Z,72.61
2023-01-10T11:44:26.256Z,72.82
2023-01-10T11:45:26.325Z,72.78
2023-01-10T11:46:26.291Z,72.89
2023-01-10T11:47:26.516Z,73.02
2023-01-10T11:48:53.159Z,73.10
2023-01-10T11:49:27.307Z,73.19
2023-01-10T11:50:26.152Z,72.68
2023-01-10T11:51:26.159Z,72.89
2023-01-10T11:52:26.192Z,72.89
2023-01-10T11:53:26.181Z,72.48
2023-01-10T11:54:26.140Z,72.38
2023-01-10T11:55:26.409Z,72.58
2023-01-10T11:56:26.085Z,72.17
2023-01-10T11:57:26.111Z,71.76
2023-01-10T11:58:35.872Z,71.55
2023-01-10T11:59:27.023Z,71.55
2023-01-10T12:00:26.069Z,71.45
2023-01-10T12:01:26.211Z,71.55
2023-01-10T12:02:26.110Z,71.35
2023-01-10T12:03:26.068Z,71.31
2023-01-10T12:04:25.968Z,71.55
2023-01-10T12:05:26.052Z,71.55
2023-01-10T12:06:26.021Z,71.55
2023-01-10T12:07:25.962Z,71.79
2023-01-10T12:08:26.035Z,72.20
2023-01-10T12:09:25.923Z,72.38
2023-01-10T12:10:25.940Z,72.10
2023-01-10T12:11:25.928Z,72.27
2023-01-10T12:12:25.883Z,72.06
2023-01-10T12:13:25.895Z,71.76
2023-01-10T12:14:58.339Z,71.97
2023-01-10T12:15:26.025Z,72.41
2023-01-10T12:16:25.905Z,72.27
2023-01-10T12:17:25.828Z,71.38
2023-01-10T12:18:25.833Z,71.38
2023-01-10T12:19:25.803Z,71.38
2023-01-10T12:20:25.863Z,71.48
2023-01-10T12:21:25.846Z,71.79
2023-01-10T12:22:25.857Z,71.79
2023-01-10T12:23:25.727Z,71.79
2023-01-10T12:24:25.790Z,71.97
2023-01-10T12:25:25.860Z,71.76
2023-01-10T12:26:25.735Z,71.55
2023-01-10T12:27:25.762Z,71.45
2023-01-10T12:28:25.891Z,70.70
2023-01-10T12:29:25.679Z,70.08
2023-01-10T12:30:25.661Z,70.01
2023-01-10T12:31:25.671Z,69.60
2023-01-10T12:32:35.382Z,69.40
2023-01-10T12:33:25.623Z,69.70
2023-01-10T12:34:27.457Z,69.70
2023-01-10T12:35:25.576Z,69.81
2023-01-10T12:36:25.603Z,69.70
2023-01-10T12:37:25.590Z,70.01
2023-01-10T12:38:25.565Z,70.32
2023-01-10T12:39:25.548Z,70.42
2023-01-10T12:40:25.697Z,70.42
2023-01-10T12:41:25.506Z,70.22
2023-01-10T12:42:25.549Z,70.12
2023-01-10T12:43:25.720Z,70.01
2023-01-10T12:44:25.473Z,69.81
2023-01-10T12:45:25.497Z,69.70
2023-01-10T12:46:52.955Z,69.70
2023-01-10T12:47:26.529Z,69.91
2023-01-10T12:48:25.428Z,69.81
2023-01-10T12:49:25.428Z,69.81
2023-01-10T12:50:25.379Z,69.60
2023-01-10T12:51:25.394Z,69.50
2023-01-10T12:52:25.459Z,69.60
2023-01-10T12:53:25.432Z,69.91
2023-01-10T12:55:35.340Z,70.01
2023-01-10T12:56:35.264Z,70.12